sensor_id;sensor_type;location;lat;lon;timestamp;pressure;altitude;pressure_sealevel;temperature;humidity
16595;BME280;8410;52.532;13.336;2023-06-24T00:00:28;101730.78;;;21.78;91.52
16595;BME280;8410;52.532;13.336;2023-06-24T00:02:55;101730.09;;;21.69;91.93
16595;BME280;8410;52.532;13.336;2023-06-24T00:05:28;101737.84;;;21.19;94.15
16595;BME280;8410;52.532;13.336;2023-06-24T00:07:55;101740.53;;;21.16;94.51
16595;BME280;8410;52.532;13.336;2023-06-24T00:10:24;101745.81;;;21.14;95.71
16595;BME280;8410;52.532;13.336;2023-06-24T00:12:52;101746.78;;;21.06;95.04
16595;BME280;8410;52.532;13.336;2023-06-24T00:15:20;101749.50;;;20.98;96.13
16595;BME280;8410;52.532;13.336;2023-06-24T00:17:47;101754.03;;;20.88;96.73
16595;BME280;8410;52.532;13.336;2023-06-24T00:20:15;101750.16;;;21.14;96.85
16595;BME280;8410;52.532;13.336;2023-06-24T00:22:44;101752.88;;;21.08;97.16
16595;BME280;8410;52.532;13.336;2023-06-24T00:25:15;101749.34;;;21.09;97.38
16595;BME280;8410;52.532;13.336;2023-06-24T00:27:44;101758.00;;;21.17;96.44
16595;BME280;8410;52.532;13.336;2023-06-24T00:30:12;101760.59;;;21.17;97.05
16595;BME280;8410;52.532;13.336;2023-06-24T00:32:40;101755.38;;;21.17;96.23
16595;BME280;8410;52.532;13.336;2023-06-24T00:35:08;101763.25;;;21.14;96.82
16595;BME280;8410;52.532;13.336;2023-06-24T00:37:37;101769.06;;;21.33;95.25
16595;BME280;8410;52.532;13.336;2023-06-24T00:40:05;101766.78;;;21.67;93.72
16595;BME280;8410;52.532;13.336;2023-06-24T00:42:37;101766.44;;;21.33;95.37
16595;BME280;8410;52.532;13.336;2023-06-24T00:45:07;101776.63;;;20.96;96.41
16595;BME280;8410;52.532;13.336;2023-06-24T00:47:36;101772.78;;;21.18;96.08
16595;BME280;8410;52.532;13.336;2023-06-24T00:50:06;101773.03;;;21.03;95.73
16595;BME280;8410;52.532;13.336;2023-06-24T00:52:33;101768.03;;;20.84;96.69
16595;BME280;8410;52.532;13.336;2023-06-24T00:55:04;101766.31;;;20.83;95.89
16595;BME280;8410;52.532;13.336;2023-06-24T00:57:33;101770.22;;;20.48;96.85
16595;BME280;8410;52.532;13.336;2023-06-24T01:00:07;101772.25;;;20.96;95.48
16595;BME280;8410;52.532;13.336;2023-06-24T01:02:39;101772.78;;;20.55;96.91
16595;BME280;8410;52.532;13.336;2023-06-24T01:05:09;101779.69;;;20.62;96.54
16595;BME280;8410;52.532;13.336;2023-06-24T01:07:38;101777.59;;;20.16;98.35
16595;BME280;8410;52.532;13.336;2023-06-24T01:10:08;101775.47;;;20.48;96.49
16595;BME280;8410;52.532;13.336;2023-06-24T01:12:37;101760.31;;;20.75;95.17
16595;BME280;8410;52.532;13.336;2023-06-24T01:15:08;101768.09;;;20.81;93.28
16595;BME280;8410;52.532;13.336;2023-06-24T01:17:39;101758.56;;;20.74;95.03
16595;BME280;8410;52.532;13.336;2023-06-24T01:20:13;101762.09;;;20.73;94.19
16595;BME280;8410;52.532;13.336;2023-06-24T01:23:15;101760.56;;;20.57;95.08
16595;BME280;8410;52.532;13.336;2023-06-24T01:25:59;101762.56;;;20.35;93.70
16595;BME280;8410;52.532;13.336;2023-06-24T01:28:50;101757.00;;;20.64;93.52
16595;BME280;8410;52.532;13.336;2023-06-24T01:31:32;101750.72;;;20.74;93.25
16595;BME280;8410;52.532;13.336;2023-06-24T01:34:06;101750.78;;;20.73;93.81
16595;BME280;8410;52.532;13.336;2023-06-24T01:36:40;101763.00;;;20.72;93.24
16595;BME280;8410;52.532;13.336;2023-06-24T01:39:12;101757.88;;;20.63;93.36
16595;BME280;8410;52.532;13.336;2023-06-24T01:41:47;101765.84;;;20.51;92.88
16595;BME280;8410;52.532;13.336;2023-06-24T01:44:17;101756.19;;;20.59;91.98
16595;BME280;8410;52.532;13.336;2023-06-24T01:46:50;101761.75;;;20.28;92.82
16595;BME280;8410;52.532;13.336;2023-06-24T01:49:20;101752.72;;;20.57;91.57
16595;BME280;8410;52.532;13.336;2023-06-24T01:51:49;101767.84;;;20.28;92.43
16595;BME280;8410;52.532;13.336;2023-06-24T01:54:18;101764.59;;;20.08;92.87
16595;BME280;8410;52.532;13.336;2023-06-24T01:56:47;101763.63;;;20.17;93.95
16595;BME280;8410;52.532;13.336;2023-06-24T01:59:17;101767.31;;;19.97;92.90
16595;BME280;8410;52.532;13.336;2023-06-24T02:01:46;101767.28;;;20.00;93.50
16595;BME280;8410;52.532;13.336;2023-06-24T02:04:15;101762.41;;;19.60;94.96
16595;BME280;8410;52.532;13.336;2023-06-24T02:06:46;101767.59;;;19.64;95.00
16595;BME280;8410;52.532;13.336;2023-06-24T02:09:15;101763.16;;;19.76;93.34
16595;BME280;8410;52.532;13.336;2023-06-24T02:11:45;101760.59;;;19.72;94.63
16595;BME280;8410;52.532;13.336;2023-06-24T02:14:16;101766.00;;;19.47;95.41
16595;BME280;8410;52.532;13.336;2023-06-24T02:16:47;101764.72;;;18.80;99.17
16595;BME280;8410;52.532;13.336;2023-06-24T02:19:16;101756.84;;;18.82;97.59
16595;BME280;8410;52.532;13.336;2023-06-24T02:21:45;101762.22;;;18.52;99.42
16595;BME280;8410;52.532;13.336;2023-06-24T02:24:14;101750.75;;;18.90;98.33
16595;BME280;8410;52.532;13.336;2023-06-24T02:26:41;101745.66;;;18.58;98.55
16595;BME280;8410;52.532;13.336;2023-06-24T02:29:09;101748.91;;;19.06;97.21
16595;BME280;8410;52.532;13.336;2023-06-24T02:31:38;101748.19;;;18.72;95.28
16595;BME280;8410;52.532;13.336;2023-06-24T02:34:07;101750.13;;;18.28;97.22
16595;BME280;8410;52.532;13.336;2023-06-24T02:36:34;101754.25;;;18.88;97.39
16595;BME280;8410;52.532;13.336;2023-06-24T02:39:02;101750.75;;;18.89;95.50
16595;BME280;8410;52.532;13.336;2023-06-24T02:41:30;101756.03;;;18.80;94.83
16595;BME280;8410;52.532;13.336;2023-06-24T02:43:57;101764.50;;;19.12;94.42
16595;BME280;8410;52.532;13.336;2023-06-24T02:46:25;101769.00;;;18.89;95.42
16595;BME280;8410;52.532;13.336;2023-06-24T02:48:56;101768.72;;;19.32;93.28
16595;BME280;8410;52.532;13.336;2023-06-24T02:51:26;101768.69;;;19.38;92.38
16595;BME280;8410;52.532;13.336;2023-06-24T02:53:54;101773.91;;;19.35;92.12
16595;BME280;8410;52.532;13.336;2023-06-24T02:56:24;101772.94;;;19.51;91.94
16595;BME280;8410;52.532;13.336;2023-06-24T02:58:54;101783.47;;;19.39;91.31
16595;BME280;8410;52.532;13.336;2023-06-24T03:01:22;101787.09;;;19.20;91.82
16595;BME280;8410;52.532;13.336;2023-06-24T03:03:53;101788.56;;;19.57;89.69
16595;BME280;8410;52.532;13.336;2023-06-24T03:06:22;101786.09;;;19.39;90.81
16595;BME280;8410;52.532;13.336;2023-06-24T03:08:51;101791.31;;;19.39;91.06
16595;BME280;8410;52.532;13.336;2023-06-24T03:11:19;101791.59;;;18.94;92.64
16595;BME280;8410;52.532;13.336;2023-06-24T03:13:46;101794.81;;;19.35;91.21
16595;BME280;8410;52.532;13.336;2023-06-24T03:16:14;101797.44;;;19.32;91.18
16595;BME280;8410;52.532;13.336;2023-06-24T03:18:42;101798.31;;;19.32;90.96
16595;BME280;8410;52.532;13.336;2023-06-24T03:21:10;101794.81;;;19.36;90.58
16595;BME280;8410;52.532;13.336;2023-06-24T03:23:37;101805.31;;;19.27;90.72
16595;BME280;8410;52.532;13.336;2023-06-24T03:26:07;101804.34;;;19.42;90.52
16595;BME280;8410;52.532;13.336;2023-06-24T03:28:35;101806.06;;;19.45;90.46
16595;BME280;8410;52.532;13.336;2023-06-24T03:31:04;101813.22;;;19.20;90.47
16595;BME280;8410;52.532;13.336;2023-06-24T03:33:32;101814.84;;;19.34;90.52
16595;BME280;8410;52.532;13.336;2023-06-24T03:35:59;101817.72;;;18.88;91.84
16595;BME280;8410;52.532;13.336;2023-06-24T03:38:27;101818.66;;;18.61;92.38
16595;BME280;8410;52.532;13.336;2023-06-24T03:40:54;101819.50;;;18.69;92.91
16595;BME280;8410;52.532;13.336;2023-06-24T03:43:23;101816.59;;;19.34;90.26
16595;BME280;8410;52.532;13.336;2023-06-24T03:45:50;101819.22;;;19.31;89.36
16595;BME280;8410;52.532;13.336;2023-06-24T03:48:18;101821.91;;;19.18;90.10
16595;BME280;8410;52.532;13.336;2023-06-24T03:50:46;101822.78;;;19.16;89.85
16595;BME280;8410;52.532;13.336;2023-06-24T03:53:13;101819.94;;;19.54;88.25
16595;BME280;8410;52.532;13.336;2023-06-24T03:55:41;101824.69;;;18.71;92.56
16595;BME280;8410;52.532;13.336;2023-06-24T03:58:08;101819.53;;;20.03;85.94
16595;BME280;8410;52.532;13.336;2023-06-24T04:00:37;101814.50;;;21.32;80.62
16595;BME280;8410;52.532;13.336;2023-06-24T04:03:06;101813.22;;;20.99;79.09
16595;BME280;8410;52.532;13.336;2023-06-24T04:05:34;101828.06;;;20.24;84.53
16595;BME280;8410;52.532;13.336;2023-06-24T04:08:02;101836.56;;;20.41;83.92
16595;BME280;8410;52.532;13.336;2023-06-24T04:10:34;101835.91;;;20.22;83.95
16595;BME280;8410;52.532;13.336;2023-06-24T04:13:01;101835.56;;;19.57;85.57
16595;BME280;8410;52.532;13.336;2023-06-24T04:15:29;101833.66;;;19.84;85.73
16595;BME280;8410;52.532;13.336;2023-06-24T04:17:57;101835.63;;;19.51;85.47
16595;BME280;8410;52.532;13.336;2023-06-24T04:20:25;101825.41;;;21.63;81.84
16595;BME280;8410;52.532;13.336;2023-06-24T04:22:52;101818.53;;;24.06;68.88
16595;BME280;8410;52.532;13.336;2023-06-24T04:25:20;101826.44;;;22.52;73.06
16595;BME280;8410;52.532;13.336;2023-06-24T04:27:47;101833.59;;;23.99;70.71
16595;BME280;8410;52.532;13.336;2023-06-24T04:30:15;101824.00;;;24.62;65.85
16595;BME280;8410;52.532;13.336;2023-06-24T04:32:42;101827.63;;;25.99;64.67
16595;BME280;8410;52.532;13.336;2023-06-24T04:35:11;101834.81;;;23.50;67.33
16595;BME280;8410;52.532;13.336;2023-06-24T04:37:39;101827.47;;;24.64;67.05
16595;BME280;8410;52.532;13.336;2023-06-24T04:40:07;101824.41;;;25.08;66.17
16595;BME280;8410;52.532;13.336;2023-06-24T04:42:35;101833.66;;;24.31;68.48
16595;BME280;8410;52.532;13.336;2023-06-24T04:45:03;101840.28;;;22.12;73.94
16595;BME280;8410;52.532;13.336;2023-06-24T04:47:32;101848.56;;;19.73;84.15
16595;BME280;8410;52.532;13.336;2023-06-24T04:49:59;101848.13;;;20.20;81.99
16595;BME280;8410;52.532;13.336;2023-06-24T04:52:28;101852.63;;;20.04;84.16
16595;BME280;8410;52.532;13.336;2023-06-24T04:54:56;101840.88;;;21.77;78.51
16595;BME280;8410;52.532;13.336;2023-06-24T04:57:25;101849.78;;;21.68;76.31
16595;BME280;8410;52.532;13.336;2023-06-24T04:59:53;101846.78;;;21.90;76.98
16595;BME280;8410;52.532;13.336;2023-06-24T05:02:20;101852.06;;;22.83;73.04
16595;BME280;8410;52.532;13.336;2023-06-24T05:04:49;101852.03;;;22.41;73.18
16595;BME280;8410;52.532;13.336;2023-06-24T05:07:17;101858.00;;;21.98;76.44
16595;BME280;8410;52.532;13.336;2023-06-24T05:09:47;101848.69;;;22.75;72.52
16595;BME280;8410;52.532;13.336;2023-06-24T05:12:15;101857.00;;;21.52;78.60
16595;BME280;8410;52.532;13.336;2023-06-24T05:14:42;101850.31;;;22.82;74.17
16595;BME280;8410;52.532;13.336;2023-06-24T05:17:10;101854.06;;;21.72;78.70
16595;BME280;8410;52.532;13.336;2023-06-24T05:19:37;101850.78;;;23.41;72.54
16595;BME280;8410;52.532;13.336;2023-06-24T05:22:06;101851.22;;;22.37;73.88
16595;BME280;8410;52.532;13.336;2023-06-24T05:24:34;101853.13;;;21.76;76.79
16595;BME280;8410;52.532;13.336;2023-06-24T05:27:05;101863.44;;;20.59;84.14
16595;BME280;8410;52.532;13.336;2023-06-24T05:29:33;101864.75;;;21.58;79.04
16595;BME280;8410;52.532;13.336;2023-06-24T05:32:01;101870.13;;;19.96;83.26
16595;BME280;8410;52.532;13.336;2023-06-24T05:34:30;101867.88;;;19.43;87.26
16595;BME280;8410;52.532;13.336;2023-06-24T05:36:57;101872.84;;;20.75;83.28
16595;BME280;8410;52.532;13.336;2023-06-24T05:39:25;101884.13;;;19.89;85.01
16595;BME280;8410;52.532;13.336;2023-06-24T05:41:52;101874.81;;;20.55;83.28
16595;BME280;8410;52.532;13.336;2023-06-24T05:44:21;101869.41;;;21.41;79.96
16595;BME280;8410;52.532;13.336;2023-06-24T05:46:49;101882.75;;;20.44;83.02
16595;BME280;8410;52.532;13.336;2023-06-24T05:49:17;101893.91;;;20.63;80.78
16595;BME280;8410;52.532;13.336;2023-06-24T05:51:45;101893.94;;;20.60;84.03
16595;BME280;8410;52.532;13.336;2023-06-24T05:54:12;101887.41;;;20.16;84.45
16595;BME280;8410;52.532;13.336;2023-06-24T05:56:40;101888.84;;;20.47;82.67
16595;BME280;8410;52.532;13.336;2023-06-24T05:59:07;101887.38;;;20.19;84.27
16595;BME280;8410;52.532;13.336;2023-06-24T06:01:36;101892.94;;;20.75;81.33
16595;BME280;8410;52.532;13.336;2023-06-24T06:04:04;101885.25;;;21.29;80.93
16595;BME280;8410;52.532;13.336;2023-06-24T06:06:31;101880.22;;;21.75;79.04
16595;BME280;8410;52.532;13.336;2023-06-24T06:08:59;101877.06;;;21.55;79.54
16595;BME280;8410;52.532;13.336;2023-06-24T06:11:27;101883.03;;;21.00;81.83
16595;BME280;8410;52.532;13.336;2023-06-24T06:13:54;101880.13;;;20.45;82.57
16595;BME280;8410;52.532;13.336;2023-06-24T06:16:22;101873.38;;;20.23;83.17
16595;BME280;8410;52.532;13.336;2023-06-24T06:18:51;101871.09;;;20.77;82.07
16595;BME280;8410;52.532;13.336;2023-06-24T06:21:18;101865.91;;;20.71;81.29
16595;BME280;8410;52.532;13.336;2023-06-24T06:23:46;101874.53;;;20.79;82.89
16595;BME280;8410;52.532;13.336;2023-06-24T06:26:13;101880.16;;;20.39;83.22
16595;BME280;8410;52.532;13.336;2023-06-24T06:28:41;101867.97;;;21.17;81.27
16595;BME280;8410;52.532;13.336;2023-06-24T06:31:09;101885.94;;;19.78;86.54
16595;BME280;8410;52.532;13.336;2023-06-24T06:33:36;101891.06;;;19.93;85.43
16595;BME280;8410;52.532;13.336;2023-06-24T06:36:05;101883.91;;;21.65;79.45
16595;BME280;8410;52.532;13.336;2023-06-24T06:38:33;101872.66;;;23.04;75.71
16595;BME280;8410;52.532;13.336;2023-06-24T06:41:01;101881.44;;;21.54;76.94
16595;BME280;8410;52.532;13.336;2023-06-24T06:43:28;101878.03;;;21.49;79.68
16595;BME280;8410;52.532;13.336;2023-06-24T06:45:56;101888.25;;;21.00;82.17
16595;BME280;8410;52.532;13.336;2023-06-24T06:48:23;101871.25;;;21.30;80.26
16595;BME280;8410;52.532;13.336;2023-06-24T06:50:51;101875.31;;;21.54;79.34
16595;BME280;8410;52.532;13.336;2023-06-24T06:53:20;101876.31;;;21.44;80.64
16595;BME280;8410;52.532;13.336;2023-06-24T06:55:48;101863.06;;;22.09;77.39
16595;BME280;8410;52.532;13.336;2023-06-24T06:58:15;101868.94;;;21.72;77.22
16595;BME280;8410;52.532;13.336;2023-06-24T07:00:43;101870.31;;;21.35;78.32
16595;BME280;8410;52.532;13.336;2023-06-24T07:03:11;101858.75;;;22.06;76.60
16595;BME280;8410;52.532;13.336;2023-06-24T07:05:38;101864.84;;;22.56;74.74
16595;BME280;8410;52.532;13.336;2023-06-24T07:08:06;101872.97;;;21.32;77.50
16595;BME280;8410;52.532;13.336;2023-06-24T07:10:35;101874.28;;;21.64;76.98
16595;BME280;8410;52.532;13.336;2023-06-24T07:13:03;101869.72;;;21.75;75.94
16595;BME280;8410;52.532;13.336;2023-06-24T07:15:30;101875.94;;;21.70;76.10
16595;BME280;8410;52.532;13.336;2023-06-24T07:17:58;101883.59;;;21.22;77.28
16595;BME280;8410;52.532;13.336;2023-06-24T07:20:26;101882.63;;;21.30;78.88
16595;BME280;8410;52.532;13.336;2023-06-24T07:22:53;101890.31;;;20.73;77.72
16595;BME280;8410;52.532;13.336;2023-06-24T07:25:21;101894.81;;;20.60;79.12
16595;BME280;8410;52.532;13.336;2023-06-24T07:27:50;101886.13;;;21.29;77.70
16595;BME280;8410;52.532;13.336;2023-06-24T07:30:17;101889.53;;;21.34;78.63
16595;BME280;8410;52.532;13.336;2023-06-24T07:32:45;101896.63;;;21.26;79.14
16595;BME280;8410;52.532;13.336;2023-06-24T07:35:12;101902.00;;;21.17;77.77
16595;BME280;8410;52.532;13.336;2023-06-24T07:37:42;101908.78;;;20.59;78.10
16595;BME280;8410;52.532;13.336;2023-06-24T07:40:09;101906.22;;;20.55;78.28
16595;BME280;8410;52.532;13.336;2023-06-24T07:42:37;101901.84;;;20.58;78.92
16595;BME280;8410;52.532;13.336;2023-06-24T07:45:06;101903.47;;;20.67;77.35
16595;BME280;8410;52.532;13.336;2023-06-24T07:47:34;101897.50;;;21.28;75.61
16595;BME280;8410;52.532;13.336;2023-06-24T07:50:02;101898.81;;;20.93;75.09
16595;BME280;8410;52.532;13.336;2023-06-24T07:52:29;101899.94;;;21.41;74.18
16595;BME280;8410;52.532;13.336;2023-06-24T07:54:57;101898.28;;;21.33;75.10
16595;BME280;8410;52.532;13.336;2023-06-24T07:57:26;101900.44;;;21.02;75.10
16595;BME280;8410;52.532;13.336;2023-06-24T07:59:53;101910.97;;;20.98;74.67
16595;BME280;8410;52.532;13.336;2023-06-24T08:02:23;101906.31;;;21.21;74.99
16595;BME280;8410;52.532;13.336;2023-06-24T08:04:51;101899.63;;;21.62;74.40
16595;BME280;8410;52.532;13.336;2023-06-24T08:07:19;101901.16;;;21.13;75.95
16595;BME280;8410;52.532;13.336;2023-06-24T08:09:46;101906.09;;;21.40;74.08
16595;BME280;8410;52.532;13.336;2023-06-24T08:12:14;101899.34;;;21.19;73.53
16595;BME280;8410;52.532;13.336;2023-06-24T08:14:41;101903.84;;;21.72;72.82
16595;BME280;8410;52.532;13.336;2023-06-24T08:17:09;101900.38;;;21.72;71.32
16595;BME280;8410;52.532;13.336;2023-06-24T08:19:38;101902.56;;;21.41;73.23
16595;BME280;8410;52.532;13.336;2023-06-24T08:22:05;101903.44;;;21.43;73.14
16595;BME280;8410;52.532;13.336;2023-06-24T08:24:33;101918.25;;;20.71;74.50
16595;BME280;8410;52.532;13.336;2023-06-24T08:27:00;101914.88;;;21.34;73.57
16595;BME280;8410;52.532;13.336;2023-06-24T08:29:28;101907.59;;;22.13;72.26
16595;BME280;8410;52.532;13.336;2023-06-24T08:31:55;101911.53;;;22.84;70.31
16595;BME280;8410;52.532;13.336;2023-06-24T08:34:23;101919.31;;;21.27;74.46
16595;BME280;8410;52.532;13.336;2023-06-24T08:36:54;101918.81;;;20.99;74.59
16595;BME280;8410;52.532;13.336;2023-06-24T08:39:21;101915.06;;;21.20;73.17
16595;BME280;8410;52.532;13.336;2023-06-24T08:41:49;101912.28;;;21.93;71.09
16595;BME280;8410;52.532;13.336;2023-06-24T08:44:16;101903.22;;;22.12;70.90
16595;BME280;8410;52.532;13.336;2023-06-24T08:46:44;101915.25;;;21.71;72.54
16595;BME280;8410;52.532;13.336;2023-06-24T08:49:27;101924.22;;;20.84;72.62
16595;BME280;8410;52.532;13.336;2023-06-24T08:52:00;101921.88;;;21.32;72.23
16595;BME280;8410;52.532;13.336;2023-06-24T08:54:30;101920.47;;;21.71;71.58
16595;BME280;8410;52.532;13.336;2023-06-24T08:57:02;101914.50;;;22.17;68.75
16595;BME280;8410;52.532;13.336;2023-06-24T08:59:32;101915.59;;;22.04;69.82
16595;BME280;8410;52.532;13.336;2023-06-24T09:02:00;101923.72;;;21.24;71.09
16595;BME280;8410;52.532;13.336;2023-06-24T09:04:28;101917.25;;;22.10;69.24
16595;BME280;8410;52.532;13.336;2023-06-24T09:06:56;101909.28;;;22.65;66.50
16595;BME280;8410;52.532;13.336;2023-06-24T09:09:25;101912.13;;;22.53;67.19
16595;BME280;8410;52.532;13.336;2023-06-24T09:11:56;101925.78;;;21.68;70.32
16595;BME280;8410;52.532;13.336;2023-06-24T09:14:24;101928.78;;;20.63;70.51
16595;BME280;8410;52.532;13.336;2023-06-24T09:16:53;101929.91;;;21.18;69.38
16595;BME280;8410;52.532;13.336;2023-06-24T09:19:22;101931.63;;;21.19;69.34
16595;BME280;8410;52.532;13.336;2023-06-24T09:21:50;101915.00;;;21.87;67.80
16595;BME280;8410;52.532;13.336;2023-06-24T09:24:17;101908.97;;;21.82;67.71
16595;BME280;8410;52.532;13.336;2023-06-24T09:26:47;101915.13;;;21.77;68.93
16595;BME280;8410;52.532;13.336;2023-06-24T09:29:14;101923.06;;;21.73;69.90
16595;BME280;8410;52.532;13.336;2023-06-24T09:31:49;101920.53;;;21.68;67.65
16595;BME280;8410;52.532;13.336;2023-06-24T09:34:19;101915.03;;;21.84;64.90
16595;BME280;8410;52.532;13.336;2023-06-24T09:36:51;101912.78;;;22.16;64.91
16595;BME280;8410;52.532;13.336;2023-06-24T09:39:19;101904.75;;;21.71;65.86
16595;BME280;8410;52.532;13.336;2023-06-24T09:41:57;101902.47;;;22.06;64.74
16595;BME280;8410;52.532;13.336;2023-06-24T09:44:26;101903.31;;;21.49;67.56
16595;BME280;8410;52.532;13.336;2023-06-24T09:46:54;101903.06;;;21.67;65.67
16595;BME280;8410;52.532;13.336;2023-06-24T09:49:22;101906.41;;;22.31;65.17
16595;BME280;8410;52.532;13.336;2023-06-24T09:51:54;101903.28;;;22.08;64.58
16595;BME280;8410;52.532;13.336;2023-06-24T09:54:24;101909.78;;;21.87;65.30
16595;BME280;8410;52.532;13.336;2023-06-24T09:56:59;101902.19;;;22.69;64.02
16595;BME280;8410;52.532;13.336;2023-06-24T09:59:30;101905.03;;;22.09;64.03
16595;BME280;8410;52.532;13.336;2023-06-24T10:02:00;101898.88;;;22.11;65.12
16595;BME280;8410;52.532;13.336;2023-06-24T10:04:29;101885.09;;;23.74;62.45
16595;BME280;8410;52.532;13.336;2023-06-24T10:06:58;101883.94;;;23.08;63.78
16595;BME280;8410;52.532;13.336;2023-06-24T10:09:26;101886.53;;;22.16;62.59
16595;BME280;8410;52.532;13.336;2023-06-24T10:11:54;101886.81;;;22.51;63.64
16595;BME280;8410;52.532;13.336;2023-06-24T10:14:22;101885.22;;;22.87;63.73
16595;BME280;8410;52.532;13.336;2023-06-24T10:16:50;101876.13;;;23.05;63.03
16595;BME280;8410;52.532;13.336;2023-06-24T10:19:19;101886.75;;;22.04;65.65
16595;BME280;8410;52.532;13.336;2023-06-24T10:21:50;101883.00;;;22.20;64.95
16595;BME280;8410;52.532;13.336;2023-06-24T10:24:28;101883.88;;;23.11;62.99
16595;BME280;8410;52.532;13.336;2023-06-24T10:27:04;101887.75;;;22.48;65.80
16595;BME280;8410;52.532;13.336;2023-06-24T10:29:37;101879.38;;;22.28;66.93
16595;BME280;8410;52.532;13.336;2023-06-24T10:32:06;101871.25;;;22.85;65.35
16595;BME280;8410;52.532;13.336;2023-06-24T10:34:39;101869.41;;;23.68;62.75
16595;BME280;8410;52.532;13.336;2023-06-24T10:37:17;101872.84;;;22.94;64.34
16595;BME280;8410;52.532;13.336;2023-06-24T10:39:50;101873.88;;;22.40;66.80
16595;BME280;8410;52.532;13.336;2023-06-24T10:42:28;101877.34;;;22.42;67.31
16595;BME280;8410;52.532;13.336;2023-06-24T10:44:59;101872.03;;;22.45;66.51
16595;BME280;8410;52.532;13.336;2023-06-24T10:47:27;101873.09;;;21.84;66.96
16595;BME280;8410;52.532;13.336;2023-06-24T10:49:56;101865.25;;;22.35;65.69
16595;BME280;8410;52.532;13.336;2023-06-24T10:52:23;101864.28;;;22.84;64.49
16595;BME280;8410;52.532;13.336;2023-06-24T10:54:52;101859.97;;;22.81;63.92
16595;BME280;8410;52.532;13.336;2023-06-24T10:57:21;101855.75;;;23.16;63.25
16595;BME280;8410;52.532;13.336;2023-06-24T10:59:51;101858.41;;;23.89;62.02
16595;BME280;8410;52.532;13.336;2023-06-24T11:02:21;101855.91;;;23.47;62.41
16595;BME280;8410;52.532;13.336;2023-06-24T11:04:50;101866.63;;;22.54;63.51
16595;BME280;8410;52.532;13.336;2023-06-24T11:07:19;101857.72;;;22.63;64.21
16595;BME280;8410;52.532;13.336;2023-06-24T11:09:48;101853.16;;;22.71;65.04
16595;BME280;8410;52.532;13.336;2023-06-24T11:12:17;101850.72;;;23.05;63.46
16595;BME280;8410;52.532;13.336;2023-06-24T11:14:45;101856.34;;;23.65;61.67
16595;BME280;8410;52.532;13.336;2023-06-24T11:17:12;101856.53;;;23.20;63.46
16595;BME280;8410;52.532;13.336;2023-06-24T11:19:41;101864.53;;;22.72;63.85
16595;BME280;8410;52.532;13.336;2023-06-24T11:22:10;101869.31;;;22.51;64.16
16595;BME280;8410;52.532;13.336;2023-06-24T11:24:37;101855.13;;;22.61;64.40
16595;BME280;8410;52.532;13.336;2023-06-24T11:27:06;101853.94;;;22.75;64.29
16595;BME280;8410;52.532;13.336;2023-06-24T11:29:34;101853.63;;;22.90;64.05
16595;BME280;8410;52.532;13.336;2023-06-24T11:32:02;101850.03;;;23.36;63.46
16595;BME280;8410;52.532;13.336;2023-06-24T11:34:30;101833.97;;;23.48;62.09
16595;BME280;8410;52.532;13.336;2023-06-24T11:37:08;101848.53;;;22.84;64.00
16595;BME280;8410;52.532;13.336;2023-06-24T11:39:36;101850.59;;;22.70;64.01
16595;BME280;8410;52.532;13.336;2023-06-24T11:42:05;101835.41;;;22.84;64.32
16595;BME280;8410;52.532;13.336;2023-06-24T11:44:33;101840.25;;;23.41;63.17
16595;BME280;8410;52.532;13.336;2023-06-24T11:47:04;101847.72;;;23.60;62.83
16595;BME280;8410;52.532;13.336;2023-06-24T11:49:47;101836.94;;;23.72;61.89
16595;BME280;8410;52.532;13.336;2023-06-24T11:52:16;101845.41;;;23.47;60.98
16595;BME280;8410;52.532;13.336;2023-06-24T11:54:44;101842.69;;;23.11;62.10
16595;BME280;8410;52.532;13.336;2023-06-24T11:57:12;101840.53;;;23.30;59.95
16595;BME280;8410;52.532;13.336;2023-06-24T11:59:42;101840.25;;;23.04;61.08
16595;BME280;8410;52.532;13.336;2023-06-24T12:02:13;101843.97;;;22.92;62.38
16595;BME280;8410;52.532;13.336;2023-06-24T12:04:43;101838.03;;;23.62;61.68
16595;BME280;8410;52.532;13.336;2023-06-24T12:07:11;101834.41;;;23.30;62.20
16595;BME280;8410;52.532;13.336;2023-06-24T12:09:40;101845.88;;;22.85;61.72
16595;BME280;8410;52.532;13.336;2023-06-24T12:12:08;101830.16;;;23.24;60.91
16595;BME280;8410;52.532;13.336;2023-06-24T12:14:35;101836.19;;;23.28;60.19
16595;BME280;8410;52.532;13.336;2023-06-24T12:17:03;101830.41;;;23.51;60.46
16595;BME280;8410;52.532;13.336;2023-06-24T12:19:30;101829.75;;;23.78;59.02
16595;BME280;8410;52.532;13.336;2023-06-24T12:21:58;101817.59;;;24.71;57.84
16595;BME280;8410;52.532;13.336;2023-06-24T12:24:25;101831.22;;;24.23;59.29
16595;BME280;8410;52.532;13.336;2023-06-24T12:26:54;101831.69;;;23.72;59.60
16595;BME280;8410;52.532;13.336;2023-06-24T12:29:22;101826.09;;;23.48;59.92
16595;BME280;8410;52.532;13.336;2023-06-24T12:31:50;101828.19;;;23.34;60.75
16595;BME280;8410;52.532;13.336;2023-06-24T12:34:17;101828.13;;;23.73;59.79
16595;BME280;8410;52.532;13.336;2023-06-24T12:36:47;101819.47;;;23.68;60.01
16595;BME280;8410;52.532;13.336;2023-06-24T12:39:14;101817.22;;;23.90;58.95
16595;BME280;8410;52.532;13.336;2023-06-24T12:41:45;101815.22;;;23.64;60.61
16595;BME280;8410;52.532;13.336;2023-06-24T12:44:14;101818.38;;;23.78;60.15
16595;BME280;8410;52.532;13.336;2023-06-24T12:46:42;101821.91;;;23.77;60.52
16595;BME280;8410;52.532;13.336;2023-06-24T12:49:09;101811.97;;;24.54;59.45
16595;BME280;8410;52.532;13.336;2023-06-24T12:51:37;101813.22;;;24.40;59.77
16595;BME280;8410;52.532;13.336;2023-06-24T12:54:04;101813.03;;;23.81;60.10
16595;BME280;8410;52.532;13.336;2023-06-24T12:56:32;101812.72;;;23.93;59.17
16595;BME280;8410;52.532;13.336;2023-06-24T12:58:59;101805.91;;;24.52;59.48